Time;durP1;ratioP1;P1;durP2;ratioP2;P2;SDS_P1;SDS_P2;PMS_P1;PMS_P2;Temp;Humidity;BMP_temperature;BMP_pressure;BME280_temperature;BME280_humidity;BME280_pressure;Samples;Min_cycle;Max_cycle;Signal;HPM_P1;HPM_P2
2022/06/12 00:00:30;;;;;;;3.20;1.33;;;;;;;;;;5097797;28;20027;-74
2022/06/12 00:02:57;;;;;;;3.15;1.02;;;;;;;;;;5101213;28;20118;-73
2022/06/12 00:05:25;;;;;;;3.83;1.35;;;;;;;;;;5100699;28;20032;-75
2022/06/12 00:07:50;;;;;;;4.57;1.70;;;;;;;;;;5099937;28;20035;-74
2022/06/12 00:10:16;;;;;;;4.65;2.20;;;;;;;;;;5100261;28;20576;-74
2022/06/12 00:12:43;;;;;;;4.78;2.15;;;;;;;;;;5100954;28;20055;-73
2022/06/12 00:15:12;;;;;;;3.30;1.80;;;;;;;;;;5098813;28;20042;-71
2022/06/12 00:17:41;;;;;;;4.47;2.05;;;;;;;;;;5102881;28;20039;-71
2022/06/12 00:20:08;;;;;;;3.40;1.55;;;;;;;;;;5100887;28;20412;-74
2022/06/12 00:22:34;;;;;;;6.10;1.80;;;;;;;;;;5100485;28;20098;-74
2022/06/12 00:24:59;;;;;;;6.35;2.85;;;;;;;;;;5100039;28;20130;-74
2022/06/12 00:27:25;;;;;;;4.82;2.30;;;;;;;;;;5103645;27;20031;-73
2022/06/12 00:29:51;;;;;;;4.00;1.90;;;;;;;;;;5098940;27;20028;-74
2022/06/12 00:32:18;;;;;;;3.97;1.80;;;;;;;;;;5103747;28;20032;-75
2022/06/12 00:34:50;;;;;;;5.38;2.10;;;;;;;;;;5103218;28;20047;-74
2022/06/12 00:37:18;;;;;;;4.70;1.70;;;;;;;;;;5100159;28;20036;-74
2022/06/12 00:39:44;;;;;;;3.35;1.60;;;;;;;;;;5098550;28;20537;-73
2022/06/12 00:42:23;;;;;;;4.32;1.60;;;;;;;;;;5096583;28;20016;-74
2022/06/12 00:44:49;;;;;;;3.15;1.20;;;;;;;;;;5100882;27;20027;-73
2022/06/12 00:47:16;;;;;;;3.30;1.15;;;;;;;;;;5100106;28;20038;-74
2022/06/12 00:49:50;;;;;;;5.10;1.50;;;;;;;;;;5106349;28;20036;-72
2022/06/12 00:52:32;;;;;;;3.00;1.52;;;;;;;;;;5101815;27;20376;-74
2022/06/12 00:55:06;;;;;;;4.72;1.60;;;;;;;;;;5097061;28;21844;-74
2022/06/12 00:57:32;;;;;;;1.90;1.13;;;;;;;;;;5103504;28;20042;-73
2022/06/12 01:00:09;;;;;;;3.92;1.60;;;;;;;;;;5102269;27;20503;-74
2022/06/12 01:02:35;;;;;;;3.72;1.20;;;;;;;;;;5107979;28;20152;-74
2022/06/12 01:07:50;;;;;;;2.90;1.55;;;;;;;;;;5103630;27;20035;-72
2022/06/12 01:10:18;;;;;;;3.42;1.63;;;;;;;;;;5096800;27;20023;-74
2022/06/12 01:12:49;;;;;;;3.80;1.48;;;;;;;;;;5098926;27;20084;-74
2022/06/12 01:15:25;;;;;;;4.60;1.75;;;;;;;;;;5114788;27;20030;-74
2022/06/12 01:17:52;;;;;;;4.22;1.50;;;;;;;;;;5121501;27;20027;-73
2022/06/12 01:20:21;;;;;;;3.95;1.55;;;;;;;;;;5103957;27;20088;-73
2022/06/12 01:23:02;;;;;;;3.33;1.48;;;;;;;;;;5099648;27;20462;-74
2022/06/12 01:25:48;;;;;;;3.90;1.52;;;;;;;;;;5105519;28;20027;-73
2022/06/12 01:28:22;;;;;;;4.15;1.70;;;;;;;;;;5104485;28;20020;-74
2022/06/12 01:31:02;;;;;;;6.07;1.98;;;;;;;;;;5102974;28;20046;-74
2022/06/12 01:33:48;;;;;;;4.95;1.50;;;;;;;;;;5096609;27;20019;-73
2022/06/12 01:36:23;;;;;;;5.07;1.58;;;;;;;;;;5099402;27;20549;-74
2022/06/12 01:39:13;;;;;;;6.53;2.03;;;;;;;;;;5101155;28;20076;-74
2022/06/12 01:42:07;;;;;;;4.30;1.67;;;;;;;;;;5098282;27;21366;-74
2022/06/12 01:44:50;;;;;;;;;;;;;;;;;;5111288;27;20368;-73
2022/06/12 01:47:24;;;;;;;5.97;1.80;;;;;;;;;;5094356;27;20437;-74
2022/06/12 01:49:58;;;;;;;4.07;1.67;;;;;;;;;;5102898;27;20599;-71
2022/06/12 01:52:36;;;;;;;4.95;1.83;;;;;;;;;;5098925;27;20128;-73
2022/06/12 01:55:34;;;;;;;4.95;1.45;;;;;;;;;;5106096;28;20032;-72
2022/06/12 01:58:09;;;;;;;6.68;1.80;;;;;;;;;;5097099;28;20046;-73
2022/06/12 02:00:35;;;;;;;3.42;1.30;;;;;;;;;;5094590;28;20042;-74
2022/06/12 02:03:14;;;;;;;6.20;1.90;;;;;;;;;;5096775;28;20479;-74
2022/06/12 02:05:47;;;;;;;5.00;1.40;;;;;;;;;;5099388;27;20026;-73
2022/06/12 02:08:16;;;;;;;;;;;;;;;;;;5098606;27;20062;-72
2022/06/12 02:10:44;;;;;;;4.82;1.42;;;;;;;;;;5100118;28;19916;-74
2022/06/12 02:13:28;;;;;;;6.05;1.80;;;;;;;;;;5102464;27;20019;-74
2022/06/12 02:16:03;;;;;;;9.82;1.83;;;;;;;;;;5099956;27;20106;-73
2022/06/12 02:18:44;;;;;;;2.78;1.35;;;;;;;;;;5104116;28;20020;-71
2022/06/12 02:21:16;;;;;;;4.03;1.45;;;;;;;;;;5105085;28;20032;-73
2022/06/12 02:23:51;;;;;;;4.53;1.50;;;;;;;;;;5102113;27;20035;-74
2022/06/12 02:26:22;;;;;;;6.28;2.00;;;;;;;;;;5102228;27;20192;-74
2022/06/12 02:28:52;;;;;;;4.20;1.60;;;;;;;;;;5100910;28;20559;-73
2022/06/12 02:31:23;;;;;;;6.75;1.65;;;;;;;;;;5101581;28;20051;-74
2022/06/12 02:34:03;;;;;;;5.30;1.88;;;;;;;;;;5098024;28;20047;-74
2022/06/12 02:36:34;;;;;;;5.15;1.80;;;;;;;;;;5097852;28;20051;-73
2022/06/12 02:39:14;;;;;;;8.05;1.90;;;;;;;;;;5094423;28;20118;-74
2022/06/12 02:41:44;;;;;;;5.40;1.58;;;;;;;;;;5105178;28;20081;-72
2022/06/12 02:44:15;;;;;;;4.63;2.00;;;;;;;;;;5093998;28;20442;-71
2022/06/12 02:46:45;;;;;;;2.97;1.70;;;;;;;;;;5100835;28;20502;-74
2022/06/12 02:49:14;;;;;;;5.68;1.92;;;;;;;;;;5102194;27;21140;-74
2022/06/12 02:51:48;;;;;;;5.97;2.00;;;;;;;;;;5101506;28;20086;-72
2022/06/12 02:54:22;;;;;;;8.13;2.25;;;;;;;;;;5099793;27;20044;-72
2022/06/12 02:57:06;;;;;;;6.38;1.90;;;;;;;;;;5101679;28;20548;-73
2022/06/12 02:59:46;;;;;;;8.35;1.73;;;;;;;;;;5102323;28;20019;-71
2022/06/12 03:02:19;;;;;;;7.57;2.00;;;;;;;;;;5118885;27;20059;-74
2022/06/12 03:04:53;;;;;;;4.93;1.75;;;;;;;;;;5094068;28;20059;-74
2022/06/12 03:07:19;;;;;;;6.97;1.88;;;;;;;;;;5110717;27;20050;-74
2022/06/12 03:09:44;;;;;;;4.93;1.80;;;;;;;;;;5099277;28;20031;-71
2022/06/12 03:12:10;;;;;;;4.45;1.75;;;;;;;;;;5098941;27;20624;-74
2022/06/12 03:14:36;;;;;;;5.95;2.00;;;;;;;;;;5101661;28;20467;-72
2022/06/12 03:17:01;;;;;;;4.35;1.80;;;;;;;;;;5099409;28;20084;-74
2022/06/12 03:19:42;;;;;;;6.32;1.75;;;;;;;;;;5095379;28;20027;-75
2022/06/12 03:22:33;;;;;;;6.50;1.77;;;;;;;;;;5098709;28;20638;-74
2022/06/12 03:25:24;;;;;;;6.97;2.20;;;;;;;;;;5114735;27;20046;-74
2022/06/12 03:28:19;;;;;;;4.63;1.63;;;;;;;;;;5100281;28;20032;-74
2022/06/12 03:30:59;;;;;;;5.13;1.67;;;;;;;;;;5097181;28;20080;-74
2022/06/12 03:33:45;;;;;;;4.78;1.95;;;;;;;;;;5102531;28;20096;-74
2022/06/12 03:36:17;;;;;;;5.43;1.75;;;;;;;;;;5102460;28;20116;-74
2022/06/12 03:39:03;;;;;;;6.22;2.10;;;;;;;;;;5109181;27;20156;-74
2022/06/12 03:41:52;;;;;;;5.63;2.10;;;;;;;;;;5101127;28;20020;-74
2022/06/12 03:44:31;;;;;;;6.18;2.13;;;;;;;;;;5102839;28;20162;-74
2022/06/12 03:47:29;;;;;;;4.85;1.85;;;;;;;;;;5100173;28;20481;-73
2022/06/12 03:50:21;;;;;;;4.35;1.58;;;;;;;;;;5102354;28;20030;-74
2022/06/12 03:52:46;;;;;;;5.00;1.67;;;;;;;;;;5094784;28;20036;-75
2022/06/12 03:57:50;;;;;;;4.78;1.83;;;;;;;;;;5102050;28;20035;-74
2022/06/12 03:58:17;;;;;;;4.15;1.67;;;;;;;;;;5099647;28;20104;-74
2022/06/12 04:00:45;;;;;;;7.05;2.03;;;;;;;;;;5101404;28;20032;-73
2022/06/12 04:03:16;;;;;;;7.45;1.90;;;;;;;;;;5104896;28;20016;-74
2022/06/12 04:05:49;;;;;;;6.05;1.92;;;;;;;;;;5101580;27;20055;-73
2022/06/12 04:08:21;;;;;;;6.75;1.80;;;;;;;;;;5097912;28;20039;-73
2022/06/12 04:10:48;;;;;;;6.05;2.20;;;;;;;;;;5103033;28;20080;-74
2022/06/12 04:13:15;;;;;;;4.80;1.90;;;;;;;;;;5103501;27;20047;-74
2022/06/12 04:15:58;;;;;;;5.35;2.00;;;;;;;;;;5101998;28;20126;-73
2022/06/12 04:18:25;;;;;;;5.10;2.08;;;;;;;;;;5102380;28;20077;-74
2022/06/12 04:21:12;;;;;;;4.55;1.90;;;;;;;;;;5107870;27;20239;-74
2022/06/12 04:23:46;;;;;;;4.93;1.80;;;;;;;;;;5104002;28;20039;-74
2022/06/12 04:26:21;;;;;;;5.82;2.10;;;;;;;;;;5101619;28;20039;-74
2022/06/12 04:28:59;;;;;;;5.45;2.17;;;;;;;;;;5100956;28;20475;-74
2022/06/12 04:31:27;;;;;;;5.68;2.00;;;;;;;;;;5099407;27;20047;-73
2022/06/12 04:34:20;;;;;;;6.10;2.33;;;;;;;;;;5104628;27;20079;-74
2022/06/12 04:36:48;;;;;;;3.53;1.92;;;;;;;;;;5103320;27;20032;-74
2022/06/12 04:39:16;;;;;;;5.57;2.08;;;;;;;;;;5096922;28;20036;-71
2022/06/12 04:41:43;;;;;;;5.85;2.17;;;;;;;;;;5102683;28;20456;-74
2022/06/12 04:44:09;;;;;;;5.30;2.00;;;;;;;;;;5103250;27;20024;-73
2022/06/12 04:46:39;;;;;;;4.97;2.00;;;;;;;;;;5105870;27;20027;-73
2022/06/12 04:49:05;;;;;;;5.35;2.10;;;;;;;;;;5099969;28;20036;-74
2022/06/12 04:51:30;;;;;;;6.25;2.05;;;;;;;;;;5101880;27;20487;-74
2022/06/12 04:53:56;;;;;;;7.32;2.03;;;;;;;;;;5102263;28;20059;-72
2022/06/12 04:56:25;;;;;;;8.05;1.90;;;;;;;;;;5102882;28;20506;-74
2022/06/12 04:58:52;;;;;;;5.32;2.08;;;;;;;;;;5101164;27;20130;-73
2022/06/12 05:01:18;;;;;;;6.22;2.17;;;;;;;;;;5108238;28;20479;-74
2022/06/12 05:03:44;;;;;;;6.65;2.10;;;;;;;;;;5105542;28;20114;-72
2022/06/12 05:06:13;;;;;;;6.68;2.28;;;;;;;;;;5102441;28;20536;-74
2022/06/12 05:08:39;;;;;;;9.52;2.88;;;;;;;;;;5099520;27;20364;-74
2022/06/12 05:11:04;;;;;;;6.45;2.55;;;;;;;;;;5098963;27;20030;-73
2022/06/12 05:13:30;;;;;;;5.45;2.22;;;;;;;;;;5101051;28;20035;-74
2022/06/12 05:15:56;;;;;;;8.95;2.65;;;;;;;;;;5103480;27;20027;-74
2022/06/12 05:18:21;;;;;;;7.68;2.65;;;;;;;;;;5103750;27;20160;-75
2022/06/12 05:20:48;;;;;;;9.02;2.20;;;;;;;;;;5101728;27;20089;-74
2022/06/12 05:23:14;;;;;;;6.28;3.05;;;;;;;;;;5098103;28;20035;-73
2022/06/12 05:25:42;;;;;;;5.63;2.50;;;;;;;;;;5104091;27;20081;-74
2022/06/12 05:28:09;;;;;;;7.75;3.22;;;;;;;;;;5102967;28;20023;-74
2022/06/12 05:30:35;;;;;;;8.52;2.90;;;;;;;;;;5105179;27;20486;-74
2022/06/12 05:33:02;;;;;;;7.47;2.53;;;;;;;;;;5105855;28;20023;-74
2022/06/12 05:35:29;;;;;;;7.90;3.08;;;;;;;;;;5103071;28;20112;-72
2022/06/12 05:37:55;;;;;;;7.00;2.70;;;;;;;;;;5105232;27;20458;-72
2022/06/12 05:40:26;;;;;;;8.90;3.08;;;;;;;;;;5119585;27;20106;-74
2022/06/12 05:42:51;;;;;;;7.25;3.08;;;;;;;;;;5103258;27;20047;-72
2022/06/12 05:45:21;;;;;;;8.23;3.05;;;;;;;;;;5099058;28;20093;-74
2022/06/12 05:47:50;;;;;;;7.35;2.90;;;;;;;;;;5098940;27;20089;-73
2022/06/12 05:50:18;;;;;;;8.40;2.80;;;;;;;;;;5104128;28;20031;-74
2022/06/12 05:52:44;;;;;;;8.80;3.25;;;;;;;;;;5100903;28;20051;-74
2022/06/12 05:55:10;;;;;;;9.30;3.20;;;;;;;;;;5101639;28;20487;-73
2022/06/12 05:57:37;;;;;;;6.88;3.33;;;;;;;;;;5102513;27;20019;-74
2022/06/12 06:00:05;;;;;;;10.40;3.13;;;;;;;;;;5097243;27;20112;-72
2022/06/12 06:02:30;;;;;;;7.28;2.67;;;;;;;;;;5100859;28;20375;-74
2022/06/12 06:04:56;;;;;;;8.98;3.28;;;;;;;;;;5102422;28;20027;-73
2022/06/12 06:07:21;;;;;;;7.13;2.70;;;;;;;;;;5101035;28;20027;-75
2022/06/12 06:09:47;;;;;;;10.18;3.78;;;;;;;;;;5097287;27;20964;-73
2022/06/12 06:12:12;;;;;;;8.45;3.75;;;;;;;;;;5103047;27;20904;-72
2022/06/12 06:14:37;;;;;;;8.27;3.40;;;;;;;;;;5103574;27;20020;-72
2022/06/12 06:17:03;;;;;;;7.88;3.35;;;;;;;;;;5101662;28;20019;-73
2022/06/12 06:19:28;;;;;;;6.72;3.47;;;;;;;;;;5105633;27;20043;-74
2022/06/12 06:21:53;;;;;;;11.98;3.97;;;;;;;;;;5104990;27;20011;-71
2022/06/12 06:24:19;;;;;;;8.30;3.30;;;;;;;;;;5104795;28;20076;-74
2022/06/12 06:26:45;;;;;;;10.93;3.35;;;;;;;;;;5099297;27;20031;-74
2022/06/12 06:29:11;;;;;;;8.88;3.50;;;;;;;;;;5111557;27;20049;-72
2022/06/12 06:31:37;;;;;;;11.45;3.75;;;;;;;;;;5101966;28;20510;-74
2022/06/12 06:34:03;;;;;;;8.88;3.15;;;;;;;;;;5099371;27;20468;-74
2022/06/12 06:36:29;;;;;;;8.10;3.53;;;;;;;;;;5098557;28;20111;-74
2022/06/12 06:38:56;;;;;;;12.93;4.10;;;;;;;;;;5094363;27;20062;-73
2022/06/12 06:41:23;;;;;;;9.35;3.42;;;;;;;;;;5103052;28;20633;-72
2022/06/12 06:46:33;;;;;;;6.78;2.95;;;;;;;;;;5101916;28;20163;-74
2022/06/12 06:48:59;;;;;;;8.98;3.10;;;;;;;;;;5096437;27;20044;-74
2022/06/12 06:51:25;;;;;;;10.05;3.33;;;;;;;;;;5103222;28;20036;-72
2022/06/12 06:53:50;;;;;;;11.45;3.10;;;;;;;;;;5101162;28;20420;-74
2022/06/12 06:56:16;;;;;;;8.73;3.30;;;;;;;;;;5102405;27;20031;-73
2022/06/12 06:58:43;;;;;;;11.15;2.92;;;;;;;;;;5103901;28;20036;-74
2022/06/12 07:01:08;;;;;;;9.90;3.20;;;;;;;;;;5101066;28;20023;-73
2022/06/12 07:03:34;;;;;;;10.82;3.00;;;;;;;;;;5099487;28;20031;-72
2022/06/12 07:06:00;;;;;;;10.13;3.13;;;;;;;;;;5108694;28;20023;-71
2022/06/12 07:08:26;;;;;;;11.02;2.65;;;;;;;;;;5106005;28;20031;-73
2022/06/12 07:10:53;;;;;;;8.13;2.72;;;;;;;;;;5106340;28;20164;-74
2022/06/12 07:13:19;;;;;;;8.73;2.70;;;;;;;;;;5103078;28;20084;-74
2022/06/12 07:15:45;;;;;;;8.55;2.67;;;;;;;;;;5101601;28;20429;-74
2022/06/12 07:18:12;;;;;;;10.85;3.10;;;;;;;;;;5104757;27;20388;-74
2022/06/12 07:20:49;;;;;;;9.05;2.85;;;;;;;;;;5099827;28;20024;-75
2022/06/12 07:23:17;;;;;;;10.27;3.25;;;;;;;;;;5103956;28;20499;-74
2022/06/12 07:25:47;;;;;;;7.10;2.63;;;;;;;;;;5095848;27;20138;-74
2022/06/12 07:28:13;;;;;;;11.77;2.95;;;;;;;;;;5104345;28;20471;-74
2022/06/12 07:30:39;;;;;;;12.63;3.50;;;;;;;;;;5102517;28;20590;-72
2022/06/12 07:33:06;;;;;;;9.63;2.83;;;;;;;;;;5103514;28;20127;-74
2022/06/12 07:35:33;;;;;;;9.70;3.30;;;;;;;;;;5100826;28;20055;-72
2022/06/12 07:37:59;;;;;;;7.45;2.47;;;;;;;;;;5099888;28;20051;-72
2022/06/12 07:40:33;;;;;;;6.75;2.30;;;;;;;;;;5103358;28;20038;-74
2022/06/12 07:42:58;;;;;;;8.68;2.50;;;;;;;;;;5097173;28;20024;-75
2022/06/12 07:45:24;;;;;;;7.18;2.22;;;;;;;;;;5095502;28;20384;-73
2022/06/12 07:47:49;;;;;;;10.02;2.80;;;;;;;;;;5104877;28;20027;-75
2022/06/12 07:50:15;;;;;;;7.68;2.83;;;;;;;;;;5105904;28;20035;-74
2022/06/12 07:52:42;;;;;;;10.77;3.30;;;;;;;;;;5105868;28;20030;-74
2022/06/12 07:55:10;;;;;;;11.45;3.22;;;;;;;;;;5094836;28;20051;-74
2022/06/12 07:57:37;;;;;;;11.32;2.95;;;;;;;;;;5102271;28;20028;-74
2022/06/12 08:00:04;;;;;;;7.20;2.63;;;;;;;;;;5103436;28;20111;-74
2022/06/12 08:02:30;;;;;;;12.05;2.90;;;;;;;;;;5098926;28;20110;-74
2022/06/12 08:04:56;;;;;;;8.00;2.42;;;;;;;;;;5102886;28;20118;-74
2022/06/12 08:07:21;;;;;;;8.40;2.55;;;;;;;;;;5097735;28;20032;-73
2022/06/12 08:09:47;;;;;;;9.63;2.97;;;;;;;;;;5100844;27;20031;-73
2022/06/12 08:12:12;;;;;;;9.93;2.92;;;;;;;;;;5093336;28;20395;-74
2022/06/12 08:14:38;;;;;;;10.90;3.45;;;;;;;;;;5100295;28;20496;-74
2022/06/12 08:17:03;;;;;;;9.50;2.92;;;;;;;;;;5100366;28;21303;-74
2022/06/12 08:22:13;;;;;;;11.75;2.67;;;;;;;;;;5103269;28;20046;-74
2022/06/12 08:24:38;;;;;;;9.30;2.35;;;;;;;;;;5106307;28;20032;-73
2022/06/12 08:27:04;;;;;;;9.23;2.72;;;;;;;;;;5104433;28;20023;-71
2022/06/12 08:29:30;;;;;;;8.60;2.70;;;;;;;;;;5101567;28;20030;-74
2022/06/12 08:32:06;;;;;;;7.55;3.00;;;;;;;;;;5105899;28;20063;-75
2022/06/12 08:34:36;;;;;;;7.22;2.67;;;;;;;;;;5102662;28;20023;-72
2022/06/12 08:37:06;;;;;;;10.02;2.92;;;;;;;;;;5104928;28;20505;-74
2022/06/12 08:39:31;;;;;;;5.90;2.42;;;;;;;;;;5099114;28;20237;-71
2022/06/12 08:41:59;;;;;;;9.25;2.58;;;;;;;;;;5104497;28;20138;-71
2022/06/12 08:44:44;;;;;;;8.25;2.97;;;;;;;;;;5104380;28;20415;-72
2022/06/12 08:47:39;;;;;;;8.63;2.60;;;;;;;;;;5103743;28;20035;-74
2022/06/12 08:50:14;;;;;;;7.88;2.10;;;;;;;;;;5101628;27;20039;-73
2022/06/12 08:52:54;;;;;;;9.80;2.40;;;;;;;;;;5101777;27;20028;-72
2022/06/12 08:55:54;;;;;;;7.05;2.65;;;;;;;;;;5105700;28;20073;-74
2022/06/12 08:58:36;;;;;;;9.68;2.95;;;;;;;;;;5102368;28;20502;-72
2022/06/12 09:01:02;;;;;;;8.80;2.77;;;;;;;;;;5102564;28;20023;-74
2022/06/12 09:03:36;;;;;;;7.82;2.55;;;;;;;;;;5105245;28;20022;-73
2022/06/12 09:06:30;;;;;;;4.75;2.05;;;;;;;;;;5107031;28;20023;-75
2022/06/12 09:09:21;;;;;;;7.20;2.40;;;;;;;;;;5123346;27;20032;-72
2022/06/12 09:12:13;;;;;;;6.82;2.25;;;;;;;;;;5074346;27;20032;-73
2022/06/12 09:15:01;;;;;;;8.68;2.20;;;;;;;;;;5109701;27;20035;-73
2022/06/12 09:17:43;;;;;;;7.57;2.60;;;;;;;;;;5105173;28;20053;-73
2022/06/12 09:20:11;;;;;;;9.13;2.70;;;;;;;;;;5104885;28;20027;-71
2022/06/12 09:22:59;;;;;;;6.47;2.10;;;;;;;;;;5107607;28;20020;-72
2022/06/12 09:25:32;;;;;;;6.32;2.28;;;;;;;;;;5106056;27;20031;-72
2022/06/12 09:28:13;;;;;;;;;;;;;;;;;;5101636;27;21179;-71
2022/06/12 09:30:48;;;;;;;5.85;2.05;;;;;;;;;;5110981;28;19911;-73
2022/06/12 09:33:55;;;;;;;6.50;2.00;;;;;;;;;;5115386;27;20055;-74
2022/06/12 09:36:39;;;;;;;6.57;1.83;;;;;;;;;;5105035;27;20051;-73
2022/06/12 09:39:26;;;;;;;9.18;2.58;;;;;;;;;;5103527;28;20103;-74
2022/06/12 09:42:28;;;;;;;6.25;1.95;;;;;;;;;;5100163;28;20028;-74
2022/06/12 09:45:00;;;;;;;6.22;2.20;;;;;;;;;;5100620;28;20031;-72
2022/06/12 09:47:47;;;;;;;8.45;2.60;;;;;;;;;;5100523;28;20043;-74
2022/06/12 09:50:38;;;;;;;8.05;2.33;;;;;;;;;;5096479;27;20036;-73
2022/06/12 09:53:21;;;;;;;8.40;2.33;;;;;;;;;;5097962;27;20031;-73
2022/06/12 09:55:52;;;;;;;5.95;2.00;;;;;;;;;;5097676;27;20041;-73
2022/06/12 09:58:29;;;;;;;6.93;1.88;;;;;;;;;;5099754;27;20036;-73
2022/06/12 10:01:16;;;;;;;8.35;2.50;;;;;;;;;;5102946;27;20161;-73
2022/06/12 10:04:17;;;;;;;9.63;2.40;;;;;;;;;;5097669;27;20070;-73
2022/06/12 10:06:58;;;;;;;8.23;1.90;;;;;;;;;;5096823;27;20532;-73
2022/06/12 10:09:23;;;;;;;6.70;1.92;;;;;;;;;;5113395;27;20024;-73
2022/06/12 10:11:54;;;;;;;8.10;1.90;;;;;;;;;;5092545;27;20825;-73
2022/06/12 10:14:27;;;;;;;6.53;1.85;;;;;;;;;;5094879;27;20024;-73
2022/06/12 10:16:57;;;;;;;6.28;1.70;;;;;;;;;;5100177;28;20939;-73
2022/06/12 10:19:34;;;;;;;5.47;2.08;;;;;;;;;;5099664;28;20035;-72
2022/06/12 10:22:15;;;;;;;5.85;1.83;;;;;;;;;;5100378;28;20059;-73
2022/06/12 10:24:41;;;;;;;8.82;2.10;;;;;;;;;;5099496;28;20032;-73
2022/06/12 10:27:10;;;;;;;4.82;1.77;;;;;;;;;;5102894;28;20043;-73
2022/06/12 10:29:41;;;;;;;7.63;2.15;;;;;;;;;;5098345;28;20350;-73
2022/06/12 10:32:12;;;;;;;8.25;2.55;;;;;;;;;;5103922;28;20027;-73
2022/06/12 10:34:37;;;;;;;8.02;2.30;;;;;;;;;;5100288;28;20213;-73
2022/06/12 10:37:10;;;;;;;6.20;1.92;;;;;;;;;;5104257;28;20118;-73
2022/06/12 10:39:36;;;;;;;;;;;;;;;;;;5092732;28;20039;-73
2022/06/12 10:42:08;;;;;;;7.22;2.15;;;;;;;;;;5102336;28;19939;-73
2022/06/12 10:44:36;;;;;;;6.78;2.28;;;;;;;;;;5098897;28;20110;-73
2022/06/12 10:47:07;;;;;;;6.63;1.98;;;;;;;;;;5100508;28;20055;-73
2022/06/12 10:49:33;;;;;;;6.22;2.00;;;;;;;;;;5099885;27;20081;-73
2022/06/12 10:52:12;;;;;;;8.07;2.45;;;;;;;;;;5095670;27;20035;-73
2022/06/12 10:54:38;;;;;;;6.32;1.83;;;;;;;;;;5094788;28;20154;-73
2022/06/12 10:57:51;;;;;;;5.53;1.70;;;;;;;;;;5094024;28;20525;-73
2022/06/12 11:00:24;;;;;;;6.70;2.15;;;;;;;;;;5019923;28;20397;-73
2022/06/12 11:03:08;;;;;;;;;;;;;;;;;;5038371;28;20033;-73
2022/06/12 11:06:12;;;;;;;5.82;1.92;;;;;;;;;;5082087;28;19919;-73
2022/06/12 11:08:47;;;;;;;8.88;2.22;;;;;;;;;;5094828;27;20504;-73
2022/06/12 11:11:19;;;;;;;8.35;2.50;;;;;;;;;;5093282;28;20398;-74
2022/06/12 11:14:29;;;;;;;8.23;2.50;;;;;;;;;;5097692;27;20023;-73
2022/06/12 11:17:25;;;;;;;5.45;1.90;;;;;;;;;;5102534;27;20038;-73
2022/06/12 11:20:11;;;;;;;5.13;1.77;;;;;;;;;;5094729;27;20492;-73
2022/06/12 11:22:54;;;;;;;6.22;1.63;;;;;;;;;;5095266;27;20041;-73
2022/06/12 11:25:26;;;;;;;6.75;1.65;;;;;;;;;;5095426;27;20035;-73
2022/06/12 11:27:57;;;;;;;7.80;1.90;;;;;;;;;;5100761;27;20498;-74
2022/06/12 11:30:34;;;;;;;4.93;1.60;;;;;;;;;;5106505;27;20318;-73
2022/06/12 11:33:10;;;;;;;4.55;1.73;;;;;;;;;;5102112;27;20058;-72
2022/06/12 11:35:49;;;;;;;5.85;1.65;;;;;;;;;;5104316;27;20054;-73
2022/06/12 11:38:45;;;;;;;5.53;1.80;;;;;;;;;;5104534;27;20046;-73
2022/06/12 11:41:28;;;;;;;6.97;1.83;;;;;;;;;;5101213;27;20483;-73
2022/06/12 11:44:16;;;;;;;3.97;1.50;;;;;;;;;;5098592;27;20118;-73
2022/06/12 11:47:11;;;;;;;5.45;1.70;;;;;;;;;;5098053;28;20035;-73
2022/06/12 11:49:42;;;;;;;6.13;1.40;;;;;;;;;;5105252;27;20031;-73
2022/06/12 11:52:17;;;;;;;4.60;1.42;;;;;;;;;;5105558;28;20024;-72
2022/06/12 11:55:03;;;;;;;4.18;1.50;;;;;;;;;;5101055;28;20114;-73
2022/06/12 11:57:49;;;;;;;7.35;1.42;;;;;;;;;;5107529;28;20032;-73
2022/06/12 12:00:27;;;;;;;5.95;1.90;;;;;;;;;;5097550;28;20044;-73
2022/06/12 12:03:05;;;;;;;4.97;1.40;;;;;;;;;;5108791;28;20444;-73
2022/06/12 12:06:07;;;;;;;4.13;1.50;;;;;;;;;;5103139;28;20027;-72
2022/06/12 12:08:42;;;;;;;4.70;1.60;;;;;;;;;;5103597;28;20506;-73
2022/06/12 12:11:13;;;;;;;5.00;1.35;;;;;;;;;;5104621;28;20032;-73
2022/06/12 12:13:48;;;;;;;5.68;1.38;;;;;;;;;;5098737;28;20031;-73
2022/06/12 12:16:19;;;;;;;3.95;1.30;;;;;;;;;;5099152;28;20031;-72
2022/06/12 12:18:51;;;;;;;7.38;1.52;;;;;;;;;;5099295;28;20060;-72
2022/06/12 12:21:43;;;;;;;6.10;1.40;;;;;;;;;;5103264;28;20023;-72
2022/06/12 12:24:14;;;;;;;3.25;0.93;;;;;;;;;;5111214;27;20023;-72
2022/06/12 12:26:42;;;;;;;3.08;0.90;;;;;;;;;;5103553;27;20098;-73
2022/06/12 12:29:23;;;;;;;4.40;1.23;;;;;;;;;;5110452;27;20027;-73
2022/06/12 12:31:49;;;;;;;4.80;1.30;;;;;;;;;;5112819;27;20474;-73
2022/06/12 12:34:16;;;;;;;4.28;1.42;;;;;;;;;;5116022;27;20034;-73
2022/06/12 12:42:33;;;;;;;3.38;1.10;;;;;;;;;;5111638;27;20031;-73
2022/06/12 12:45:29;;;;;;;6.57;1.60;;;;;;;;;;5101860;27;20056;-73
2022/06/12 12:48:01;;;;;;;4.22;1.38;;;;;;;;;;5102097;27;20286;-73
2022/06/12 12:50:29;;;;;;;3.25;1.23;;;;;;;;;;5102822;28;20106;-73
2022/06/12 12:52:57;;;;;;;4.28;1.27;;;;;;;;;;5089759;27;20047;-73
2022/06/12 12:55:34;;;;;;;3.90;1.25;;;;;;;;;;5096631;27;20048;-73
2022/06/12 12:58:13;;;;;;;5.13;1.50;;;;;;;;;;5109282;27;20043;-73
2022/06/12 13:00:40;;;;;;;4.47;1.10;;;;;;;;;;5098443;28;20059;-73
2022/06/12 13:03:11;;;;;;;4.50;1.20;;;;;;;;;;5094788;27;20118;-73
2022/06/12 13:05:45;;;;;;;4.60;1.13;;;;;;;;;;5098593;28;20032;-73
2022/06/12 13:08:43;;;;;;;3.83;1.30;;;;;;;;;;5100702;28;20095;-73
2022/06/12 13:11:43;;;;;;;3.40;1.30;;;;;;;;;;5101551;27;20032;-73
2022/06/12 13:14:27;;;;;;;4.47;1.30;;;;;;;;;;5065953;28;20035;-73
2022/06/12 13:17:09;;;;;;;2.65;1.00;;;;;;;;;;5101737;27;20023;-74
2022/06/12 13:19:46;;;;;;;4.00;1.30;;;;;;;;;;5100549;27;20036;-74
2022/06/12 13:22:41;;;;;;;2.55;1.08;;;;;;;;;;5096436;28;20019;-73
2022/06/12 13:25:13;;;;;;;4.13;1.40;;;;;;;;;;5100072;27;20403;-73
2022/06/12 13:27:51;;;;;;;3.53;1.33;;;;;;;;;;5100193;28;20034;-73
2022/06/12 13:30:28;;;;;;;3.47;1.25;;;;;;;;;;5102491;28;20031;-73
2022/06/12 13:33:25;;;;;;;3.45;1.25;;;;;;;;;;5103723;27;20031;-73
2022/06/12 13:35:54;;;;;;;2.97;1.00;;;;;;;;;;5100071;28;20047;-74
2022/06/12 13:38:35;;;;;;;2.97;1.17;;;;;;;;;;5103912;27;20030;-73
2022/06/12 13:41:08;;;;;;;4.72;1.15;;;;;;;;;;5103287;27;20108;-73
2022/06/12 13:43:35;;;;;;;;;;;;;;;;;;5103589;28;20020;-73
2022/06/12 13:46:17;;;;;;;4.00;0.90;;;;;;;;;;5099845;27;19911;-74
2022/06/12 13:48:43;;;;;;;3.03;1.00;;;;;;;;;;5108134;28;20475;-73
2022/06/12 13:51:40;;;;;;;4.65;1.00;;;;;;;;;;5103357;27;20050;-74
2022/06/12 13:54:16;;;;;;;2.35;1.02;;;;;;;;;;5111347;28;20395;-73
2022/06/12 13:57:10;;;;;;;4.90;1.00;;;;;;;;;;5105535;27;20031;-73
2022/06/12 13:59:44;;;;;;;4.63;1.30;;;;;;;;;;5095028;28;20459;-74
2022/06/12 14:02:26;;;;;;;4.43;0.90;;;;;;;;;;5101909;27;20031;-73
2022/06/12 14:04:57;;;;;;;4.65;1.00;;;;;;;;;;5100213;28;20444;-73
2022/06/12 14:07:26;;;;;;;2.38;0.80;;;;;;;;;;5109907;28;20027;-72
2022/06/12 14:09:56;;;;;;;2.78;0.90;;;;;;;;;;5104852;27;20027;-72
2022/06/12 14:12:23;;;;;;;3.22;1.08;;;;;;;;;;5108471;28;20031;-72
2022/06/12 14:14:50;;;;;;;2.30;0.82;;;;;;;;;;5104444;28;20020;-72
2022/06/12 14:17:17;;;;;;;1.42;1.02;;;;;;;;;;5106576;27;20035;-73
2022/06/12 14:19:43;;;;;;;2.40;0.80;;;;;;;;;;5102183;28;20176;-73
2022/06/12 14:22:12;;;;;;;2.97;0.75;;;;;;;;;;5110025;28;20451;-73
2022/06/12 14:24:37;;;;;;;2.85;0.60;;;;;;;;;;5102124;28;20027;-73
2022/06/12 14:27:19;;;;;;;1.25;0.60;;;;;;;;;;5107604;28;20032;-73
2022/06/12 14:29:45;;;;;;;2.40;0.60;;;;;;;;;;5107452;28;20020;-73
2022/06/12 14:32:10;;;;;;;3.63;0.95;;;;;;;;;;5104988;28;20023;-72
2022/06/12 14:34:38;;;;;;;1.25;0.60;;;;;;;;;;5103088;28;20043;-72
2022/06/12 14:37:04;;;;;;;1.13;0.50;;;;;;;;;;5101276;28;20048;-73
2022/06/12 14:39:34;;;;;;;2.63;0.80;;;;;;;;;;5106410;27;20077;-72
2022/06/12 14:42:10;;;;;;;3.78;0.90;;;;;;;;;;5103965;27;20023;-74
2022/06/12 14:44:38;;;;;;;2.10;0.70;;;;;;;;;;5102031;28;20023;-73
2022/06/12 14:47:29;;;;;;;1.10;0.60;;;;;;;;;;5099671;28;20403;-73
2022/06/12 14:49:56;;;;;;;3.10;0.77;;;;;;;;;;5105019;28;20026;-72
2022/06/12 14:52:27;;;;;;;3.35;0.80;;;;;;;;;;5105108;27;20037;-73
2022/06/12 14:54:55;;;;;;;3.75;0.90;;;;;;;;;;5098401;28;20047;-72
2022/06/12 14:57:22;;;;;;;1.92;0.70;;;;;;;;;;5104957;28;20387;-73
2022/06/12 14:59:49;;;;;;;3.88;0.98;;;;;;;;;;5108343;28;20510;-73
2022/06/12 15:02:20;;;;;;;1.73;0.60;;;;;;;;;;5107880;28;20043;-73
2022/06/12 15:04:46;;;;;;;2.58;1.20;;;;;;;;;;5107954;28;20084;-72
2022/06/12 15:07:11;;;;;;;5.35;0.95;;;;;;;;;;5104624;28;20050;-72
2022/06/12 15:09:37;;;;;;;2.13;0.80;;;;;;;;;;5098812;28;20024;-73
2022/06/12 15:12:03;;;;;;;1.52;0.70;;;;;;;;;;5104608;28;20117;-72
2022/06/12 15:14:30;;;;;;;3.42;1.05;;;;;;;;;;5093223;28;20824;-73
2022/06/12 15:16:55;;;;;;;2.28;0.70;;;;;;;;;;5103524;28;20101;-73
2022/06/12 15:19:21;;;;;;;1.75;0.65;;;;;;;;;;5101850;28;20048;-72
2022/06/12 15:21:46;;;;;;;2.20;0.77;;;;;;;;;;5103353;28;20024;-73
2022/06/12 15:24:16;;;;;;;5.38;0.85;;;;;;;;;;5101657;28;20066;-73
2022/06/12 15:32:30;;;;;;;2.05;0.60;;;;;;;;;;5103624;28;20050;-73
2022/06/12 15:34:57;;;;;;;2.88;0.60;;;;;;;;;;5093619;28;20023;-72
2022/06/12 15:37:23;;;;;;;2.05;0.52;;;;;;;;;;5105681;28;20411;-73
2022/06/12 15:39:49;;;;;;;1.92;0.63;;;;;;;;;;5090910;27;20028;-72